sensor_id;sensor_type;location;lat;lon;timestamp;pressure;altitude;pressure_sealevel;temperature;humidity
68988;BME280;56038;46.080;11.116;2023-05-23T00:01:28;99114.13;;;19.23;65.16
68988;BME280;56038;46.080;11.116;2023-05-23T00:06:30;99109.19;;;19.07;66.10
68988;BME280;56038;46.080;11.116;2023-05-23T00:11:33;99118.72;;;18.87;67.15
68988;BME280;56038;46.080;11.116;2023-05-23T00:16:38;99112.38;;;18.78;67.79
68988;BME280;56038;46.080;11.116;2023-05-23T00:21:42;99119.56;;;18.76;68.33
68988;BME280;56038;46.080;11.116;2023-05-23T00:26:45;99115.09;;;18.77;67.79
68988;BME280;56038;46.080;11.116;2023-05-23T00:31:48;99117.97;;;18.63;69.72
68988;BME280;56038;46.080;11.116;2023-05-23T00:36:50;99119.78;;;18.62;68.25
68988;BME280;56038;46.080;11.116;2023-05-23T00:41:53;99123.72;;;18.56;68.37
68988;BME280;56038;46.080;11.116;2023-05-23T00:46:57;99123.47;;;18.48;69.03
68988;BME280;56038;46.080;11.116;2023-05-23T00:51:59;99126.13;;;18.48;69.01
68988;BME280;56038;46.080;11.116;2023-05-23T00:57:01;99127.69;;;18.51;68.69
68988;BME280;56038;46.080;11.116;2023-05-23T01:02:05;99124.88;;;18.41;69.31
68988;BME280;56038;46.080;11.116;2023-05-23T01:07:07;99124.13;;;18.28;69.63
68988;BME280;56038;46.080;11.116;2023-05-23T01:12:17;99121.72;;;18.25;70.33
68988;BME280;56038;46.080;11.116;2023-05-23T01:17:28;99118.47;;;18.21;70.42
68988;BME280;56038;46.080;11.116;2023-05-23T01:22:53;99123.16;;;18.18;71.35
68988;BME280;56038;46.080;11.116;2023-05-23T01:28:02;99136.69;;;18.13;70.32
68988;BME280;56038;46.080;11.116;2023-05-23T01:33:06;99137.16;;;18.07;70.48
68988;BME280;56038;46.080;11.116;2023-05-23T01:38:09;99133.25;;;17.89;71.27
68988;BME280;56038;46.080;11.116;2023-05-23T01:43:12;99137.69;;;17.88;70.91
68988;BME280;56038;46.080;11.116;2023-05-23T01:48:14;99143.88;;;17.76;71.40
68988;BME280;56038;46.080;11.116;2023-05-23T01:53:19;99142.19;;;17.75;71.77
68988;BME280;56038;46.080;11.116;2023-05-23T01:58:23;99140.09;;;17.67;72.02
68988;BME280;56038;46.080;11.116;2023-05-23T02:03:25;99134.81;;;17.67;71.99
68988;BME280;56038;46.080;11.116;2023-05-23T02:08:27;99141.34;;;17.62;72.21
68988;BME280;56038;46.080;11.116;2023-05-23T02:13:30;99138.22;;;17.57;72.22
68988;BME280;56038;46.080;11.116;2023-05-23T02:18:32;99138.94;;;17.59;72.03
68988;BME280;56038;46.080;11.116;2023-05-23T02:23:33;99134.19;;;17.51;72.64
68988;BME280;56038;46.080;11.116;2023-05-23T02:28:36;99132.75;;;17.47;72.88
68988;BME280;56038;46.080;11.116;2023-05-23T02:33:38;99133.81;;;17.45;73.03
68988;BME280;56038;46.080;11.116;2023-05-23T02:38:40;99129.38;;;17.45;72.88
68988;BME280;56038;46.080;11.116;2023-05-23T02:43:45;99138.03;;;17.47;72.80
68988;BME280;56038;46.080;11.116;2023-05-23T02:48:47;99127.81;;;17.43;72.85
68988;BME280;56038;46.080;11.116;2023-05-23T02:53:49;99125.81;;;17.33;73.00
68988;BME280;56038;46.080;11.116;2023-05-23T02:58:52;99127.56;;;17.22;73.46
68988;BME280;56038;46.080;11.116;2023-05-23T03:03:54;99121.88;;;17.02;74.29
68988;BME280;56038;46.080;11.116;2023-05-23T03:08:56;99124.41;;;17.04;74.06
68988;BME280;56038;46.080;11.116;2023-05-23T03:13:59;99125.28;;;17.04;74.20
68988;BME280;56038;46.080;11.116;2023-05-23T03:19:01;99129.78;;;17.02;74.33
68988;BME280;56038;46.080;11.116;2023-05-23T03:24:04;99132.31;;;17.04;74.33
68988;BME280;56038;46.080;11.116;2023-05-23T03:29:07;99123.06;;;16.98;74.59
68988;BME280;56038;46.080;11.116;2023-05-23T03:34:10;99126.34;;;16.89;75.17
68988;BME280;56038;46.080;11.116;2023-05-23T03:39:12;99129.94;;;16.75;75.90
68988;BME280;56038;46.080;11.116;2023-05-23T03:44:15;99137.94;;;16.87;75.60
68988;BME280;56038;46.080;11.116;2023-05-23T03:49:17;99136.47;;;16.83;76.04
68988;BME280;56038;46.080;11.116;2023-05-23T03:54:18;99145.66;;;16.77;76.40
68988;BME280;56038;46.080;11.116;2023-05-23T03:59:22;99148.50;;;16.74;76.53
68988;BME280;56038;46.080;11.116;2023-05-23T04:04:24;99151.22;;;16.72;76.71
68988;BME280;56038;46.080;11.116;2023-05-23T04:09:25;99157.63;;;16.56;77.98
68988;BME280;56038;46.080;11.116;2023-05-23T04:14:28;99159.03;;;16.61;77.72
68988;BME280;56038;46.080;11.116;2023-05-23T04:19:32;99152.50;;;16.67;77.24
68988;BME280;56038;46.080;11.116;2023-05-23T04:24:34;99161.44;;;16.64;77.65
68988;BME280;56038;46.080;11.116;2023-05-23T04:29:38;99159.66;;;16.65;77.57
68988;BME280;56038;46.080;11.116;2023-05-23T04:34:39;99158.63;;;16.67;77.37
68988;BME280;56038;46.080;11.116;2023-05-23T04:39:41;99160.31;;;16.81;77.21
68988;BME280;56038;46.080;11.116;2023-05-23T04:44:45;99160.00;;;16.86;77.13
68988;BME280;56038;46.080;11.116;2023-05-23T04:49:49;99164.75;;;16.93;77.22
68988;BME280;56038;46.080;11.116;2023-05-23T04:54:53;99157.56;;;16.95;77.27
68988;BME280;56038;46.080;11.116;2023-05-23T04:59:56;99163.03;;;17.18;76.51
68988;BME280;56038;46.080;11.116;2023-05-23T05:04:58;99153.38;;;17.42;75.60
68988;BME280;56038;46.080;11.116;2023-05-23T05:10:00;99156.34;;;17.74;74.85
68988;BME280;56038;46.080;11.116;2023-05-23T05:15:04;99162.56;;;18.21;74.22
68988;BME280;56038;46.080;11.116;2023-05-23T05:20:07;99168.28;;;18.39;73.34
68988;BME280;56038;46.080;11.116;2023-05-23T05:25:10;99162.00;;;18.75;72.15
68988;BME280;56038;46.080;11.116;2023-05-23T05:30:13;99162.38;;;18.93;71.49
68988;BME280;56038;46.080;11.116;2023-05-23T05:35:16;99154.59;;;19.13;71.20
68988;BME280;56038;46.080;11.116;2023-05-23T05:40:17;99168.78;;;19.12;71.06
68988;BME280;56038;46.080;11.116;2023-05-23T05:45:21;99157.94;;;18.93;70.60
68988;BME280;56038;46.080;11.116;2023-05-23T05:50:22;99158.78;;;19.05;69.78
68988;BME280;56038;46.080;11.116;2023-05-23T05:55:26;99150.97;;;19.14;69.20
68988;BME280;56038;46.080;11.116;2023-05-23T06:00:29;99154.56;;;19.25;68.60
68988;BME280;56038;46.080;11.116;2023-05-23T06:05:36;99147.34;;;19.38;68.33
68988;BME280;56038;46.080;11.116;2023-05-23T06:10:42;99143.72;;;19.61;67.96
68988;BME280;56038;46.080;11.116;2023-05-23T06:15:45;99137.78;;;19.69;67.80
68988;BME280;56038;46.080;11.116;2023-05-23T06:20:47;99143.50;;;19.85;67.09
68988;BME280;56038;46.080;11.116;2023-05-23T06:25:49;99141.66;;;20.08;67.15
68988;BME280;56038;46.080;11.116;2023-05-23T06:30:52;99143.31;;;20.41;66.52
68988;BME280;56038;46.080;11.116;2023-05-23T06:35:54;99136.63;;;20.47;66.44
68988;BME280;56038;46.080;11.116;2023-05-23T06:40:56;99135.34;;;20.41;66.55
68988;BME280;56038;46.080;11.116;2023-05-23T06:45:59;99125.06;;;20.69;66.11
68988;BME280;56038;46.080;11.116;2023-05-23T06:51:01;99124.31;;;20.87;65.58
68988;BME280;56038;46.080;11.116;2023-05-23T06:56:03;99109.91;;;21.20;64.91
68988;BME280;56038;46.080;11.116;2023-05-23T07:01:06;99119.34;;;21.44;64.44
68988;BME280;56038;46.080;11.116;2023-05-23T07:06:10;99114.19;;;21.62;63.99
68988;BME280;56038;46.080;11.116;2023-05-23T07:11:12;99102.88;;;21.60;63.42
68988;BME280;56038;46.080;11.116;2023-05-23T07:16:15;99099.97;;;21.63;63.10
68988;BME280;56038;46.080;11.116;2023-05-23T07:21:17;99098.56;;;21.78;62.92
68988;BME280;56038;46.080;11.116;2023-05-23T07:26:18;99093.25;;;21.88;62.36
68988;BME280;56038;46.080;11.116;2023-05-23T07:31:22;99085.28;;;21.97;61.66
68988;BME280;56038;46.080;11.116;2023-05-23T07:36:23;99081.94;;;22.15;60.65
68988;BME280;56038;46.080;11.116;2023-05-23T07:41:26;99075.91;;;22.13;60.67
68988;BME280;56038;46.080;11.116;2023-05-23T07:46:30;99066.66;;;22.17;60.31
68988;BME280;56038;46.080;11.116;2023-05-23T07:51:31;99058.78;;;22.25;59.95
68988;BME280;56038;46.080;11.116;2023-05-23T07:56:33;99052.84;;;22.50;59.34
68988;BME280;56038;46.080;11.116;2023-05-23T08:01:39;99043.84;;;22.61;59.00
68988;BME280;56038;46.080;11.116;2023-05-23T08:06:41;99037.59;;;22.80;58.52
68988;BME280;56038;46.080;11.116;2023-05-23T08:11:46;99028.25;;;23.03;58.49
68988;BME280;56038;46.080;11.116;2023-05-23T08:16:49;99034.16;;;23.24;57.73
68988;BME280;56038;46.080;11.116;2023-05-23T08:21:51;99027.50;;;23.38;56.99
68988;BME280;56038;46.080;11.116;2023-05-23T08:26:53;99024.81;;;23.56;56.97
68988;BME280;56038;46.080;11.116;2023-05-23T08:31:56;99024.31;;;23.52;56.43
68988;BME280;56038;46.080;11.116;2023-05-23T08:36:58;99013.56;;;23.62;55.99
68988;BME280;56038;46.080;11.116;2023-05-23T08:42:00;99011.66;;;23.72;55.12
68988;BME280;56038;46.080;11.116;2023-05-23T08:47:03;99004.19;;;23.76;54.59
68988;BME280;56038;46.080;11.116;2023-05-23T08:52:09;98990.81;;;23.94;54.08
68988;BME280;56038;46.080;11.116;2023-05-23T08:57:12;98989.63;;;24.14;54.00
68988;BME280;56038;46.080;11.116;2023-05-23T09:02:15;98989.94;;;24.63;53.18
68988;BME280;56038;46.080;11.116;2023-05-23T09:07:18;98987.56;;;24.94;52.58
68988;BME280;56038;46.080;11.116;2023-05-23T09:12:20;98979.13;;;25.23;51.67
68988;BME280;56038;46.080;11.116;2023-05-23T09:17:24;98974.47;;;25.49;50.76
68988;BME280;56038;46.080;11.116;2023-05-23T09:22:26;98960.78;;;25.85;50.37
68988;BME280;56038;46.080;11.116;2023-05-23T09:27:28;98956.06;;;26.03;49.62
68988;BME280;56038;46.080;11.116;2023-05-23T09:32:32;98946.31;;;26.26;49.13
68988;BME280;56038;46.080;11.116;2023-05-23T09:37:34;98943.06;;;26.55;48.22
68988;BME280;56038;46.080;11.116;2023-05-23T09:42:42;98938.13;;;26.75;47.36
68988;BME280;56038;46.080;11.116;2023-05-23T09:47:49;98933.59;;;27.15;46.01
68988;BME280;56038;46.080;11.116;2023-05-23T09:52:57;98924.16;;;27.65;45.51
68988;BME280;56038;46.080;11.116;2023-05-23T09:58:09;98924.56;;;27.54;41.95
68988;BME280;56038;46.080;11.116;2023-05-23T10:03:14;98911.47;;;27.73;44.92
68988;BME280;56038;46.080;11.116;2023-05-23T10:08:19;98907.97;;;27.73;43.25
68988;BME280;56038;46.080;11.116;2023-05-23T10:13:24;98890.88;;;28.18;42.76
68988;BME280;56038;46.080;11.116;2023-05-23T10:18:29;98885.44;;;28.41;42.57
68988;BME280;56038;46.080;11.116;2023-05-23T10:23:33;98884.47;;;28.85;42.35
68988;BME280;56038;46.080;11.116;2023-05-23T10:28:36;98877.22;;;29.00;42.06
68988;BME280;56038;46.080;11.116;2023-05-23T10:33:49;98870.59;;;28.81;39.85
68988;BME280;56038;46.080;11.116;2023-05-23T10:38:57;98861.91;;;29.01;38.11
68988;BME280;56038;46.080;11.116;2023-05-23T10:44:09;98856.75;;;28.99;37.35
68988;BME280;56038;46.080;11.116;2023-05-23T10:49:14;98844.19;;;29.28;38.44
68988;BME280;56038;46.080;11.116;2023-05-23T11:00:19;98829.25;;;29.74;32.94
68988;BME280;56038;46.080;11.116;2023-05-23T11:05:58;98823.84;;;28.25;36.04
68988;BME280;56038;46.080;11.116;2023-05-23T11:11:02;98807.94;;;27.94;37.76
68988;BME280;56038;46.080;11.116;2023-05-23T11:16:25;98815.66;;;28.18;35.85
68988;BME280;56038;46.080;11.116;2023-05-23T11:21:29;98820.59;;;28.00;35.23
68988;BME280;56038;46.080;11.116;2023-05-23T11:26:31;98810.50;;;27.87;37.47
68988;BME280;56038;46.080;11.116;2023-05-23T11:31:36;98810.31;;;28.03;37.75
68988;BME280;56038;46.080;11.116;2023-05-23T11:36:39;98818.34;;;28.69;36.44
68988;BME280;56038;46.080;11.116;2023-05-23T11:41:41;98816.88;;;29.52;35.77
68988;BME280;56038;46.080;11.116;2023-05-23T11:46:58;98799.88;;;30.14;34.53
68988;BME280;56038;46.080;11.116;2023-05-23T11:52:02;98787.75;;;30.03;36.15
68988;BME280;56038;46.080;11.116;2023-05-23T11:57:04;98790.84;;;29.66;37.29
68988;BME280;56038;46.080;11.116;2023-05-23T12:02:06;98794.78;;;29.07;38.17
68988;BME280;56038;46.080;11.116;2023-05-23T12:07:10;98788.47;;;28.57;38.25
68988;BME280;56038;46.080;11.116;2023-05-23T12:12:12;98800.38;;;28.19;39.08
68988;BME280;56038;46.080;11.116;2023-05-23T12:17:14;98807.19;;;28.00;38.85
68988;BME280;56038;46.080;11.116;2023-05-23T12:22:21;98808.47;;;28.04;38.35
68988;BME280;56038;46.080;11.116;2023-05-23T12:27:34;98810.31;;;27.74;37.49
68988;BME280;56038;46.080;11.116;2023-05-23T12:32:39;98799.91;;;27.41;38.63
68988;BME280;56038;46.080;11.116;2023-05-23T12:37:42;98805.97;;;27.21;37.01
68988;BME280;56038;46.080;11.116;2023-05-23T12:42:51;98790.50;;;27.08;37.77
68988;BME280;56038;46.080;11.116;2023-05-23T12:47:54;98792.63;;;27.12;38.37
68988;BME280;56038;46.080;11.116;2023-05-23T12:52:57;98794.47;;;27.12;37.72
68988;BME280;56038;46.080;11.116;2023-05-23T12:57:59;98789.81;;;27.29;38.04
68988;BME280;56038;46.080;11.116;2023-05-23T13:03:00;98800.81;;;27.19;37.90
68988;BME280;56038;46.080;11.116;2023-05-23T13:08:04;98786.13;;;27.44;37.81
68988;BME280;56038;46.080;11.116;2023-05-23T13:13:05;98793.69;;;27.93;37.56
68988;BME280;56038;46.080;11.116;2023-05-23T13:18:07;98796.25;;;28.31;37.06
68988;BME280;56038;46.080;11.116;2023-05-23T13:23:11;98797.72;;;28.33;36.66
68988;BME280;56038;46.080;11.116;2023-05-23T13:28:12;98798.63;;;28.41;37.13
68988;BME280;56038;46.080;11.116;2023-05-23T13:33:14;98818.22;;;28.92;36.71
68988;BME280;56038;46.080;11.116;2023-05-23T13:38:18;98825.38;;;28.70;34.94
68988;BME280;56038;46.080;11.116;2023-05-23T13:43:20;98815.94;;;28.23;35.52
68988;BME280;56038;46.080;11.116;2023-05-23T13:48:22;98803.53;;;28.37;37.27
68988;BME280;56038;46.080;11.116;2023-05-23T13:53:25;98826.53;;;27.95;36.98
68988;BME280;56038;46.080;11.116;2023-05-23T13:58:26;98830.59;;;27.91;37.32
68988;BME280;56038;46.080;11.116;2023-05-23T14:03:28;98837.88;;;27.53;36.23
68988;BME280;56038;46.080;11.116;2023-05-23T14:08:32;98853.56;;;27.04;38.49
68988;BME280;56038;46.080;11.116;2023-05-23T14:13:34;98850.91;;;27.19;38.90
68988;BME280;56038;46.080;11.116;2023-05-23T14:18:35;98861.47;;;27.20;39.78
68988;BME280;56038;46.080;11.116;2023-05-23T14:23:38;98874.22;;;27.18;39.62
68988;BME280;56038;46.080;11.116;2023-05-23T14:28:40;98871.94;;;27.07;39.66
68988;BME280;56038;46.080;11.116;2023-05-23T14:33:42;98872.50;;;26.40;40.84
68988;BME280;56038;46.080;11.116;2023-05-23T14:38:45;98872.44;;;26.09;41.95
68988;BME280;56038;46.080;11.116;2023-05-23T14:43:48;98874.63;;;25.97;42.97
68988;BME280;56038;46.080;11.116;2023-05-23T14:48:50;98881.53;;;25.51;44.95
68988;BME280;56038;46.080;11.116;2023-05-23T14:53:53;98890.06;;;25.14;46.09
68988;BME280;56038;46.080;11.116;2023-05-23T14:58:56;98882.00;;;24.98;46.64
68988;BME280;56038;46.080;11.116;2023-05-23T15:03:58;98887.28;;;24.65;46.29
68988;BME280;56038;46.080;11.116;2023-05-23T15:09:01;98875.22;;;24.53;46.20
68988;BME280;56038;46.080;11.116;2023-05-23T15:14:03;98877.44;;;24.66;45.68
68988;BME280;56038;46.080;11.116;2023-05-23T15:19:05;98873.00;;;24.40;47.35
68988;BME280;56038;46.080;11.116;2023-05-23T15:24:08;98865.88;;;24.15;47.55
68988;BME280;56038;46.080;11.116;2023-05-23T15:29:10;98875.91;;;24.21;47.50
68988;BME280;56038;46.080;11.116;2023-05-23T15:34:14;98867.81;;;24.05;48.90
68988;BME280;56038;46.080;11.116;2023-05-23T15:39:17;98866.84;;;24.06;47.84
68988;BME280;56038;46.080;11.116;2023-05-23T15:44:20;98866.03;;;24.13;46.78
68988;BME280;56038;46.080;11.116;2023-05-23T15:49:21;98868.00;;;24.37;46.50
68988;BME280;56038;46.080;11.116;2023-05-23T15:54:25;98859.53;;;24.50;46.90
68988;BME280;56038;46.080;11.116;2023-05-23T15:59:26;98858.69;;;24.49;46.61
68988;BME280;56038;46.080;11.116;2023-05-23T16:04:28;98854.00;;;24.43;46.63
68988;BME280;56038;46.080;11.116;2023-05-23T16:09:31;98845.91;;;24.27;47.34
68988;BME280;56038;46.080;11.116;2023-05-23T16:14:33;98852.53;;;24.15;47.25
68988;BME280;56038;46.080;11.116;2023-05-23T16:19:35;98852.22;;;24.18;47.73
68988;BME280;56038;46.080;11.116;2023-05-23T16:24:38;98855.13;;;23.99;47.43
68988;BME280;56038;46.080;11.116;2023-05-23T16:29:40;98856.16;;;24.06;47.18
68988;BME280;56038;46.080;11.116;2023-05-23T16:34:42;98850.72;;;24.24;46.42
68988;BME280;56038;46.080;11.116;2023-05-23T16:39:45;98856.22;;;24.22;47.81
68988;BME280;56038;46.080;11.116;2023-05-23T16:44:47;98848.72;;;24.17;49.01
68988;BME280;56038;46.080;11.116;2023-05-23T16:49:49;98848.97;;;24.32;48.15
68988;BME280;56038;46.080;11.116;2023-05-23T16:54:52;98849.31;;;24.45;48.30
68988;BME280;56038;46.080;11.116;2023-05-23T16:59:55;98848.34;;;24.55;48.45
68988;BME280;56038;46.080;11.116;2023-05-23T17:04:57;98841.69;;;24.59;49.12
68988;BME280;56038;46.080;11.116;2023-05-23T17:10:02;98845.84;;;24.61;48.95
68988;BME280;56038;46.080;11.116;2023-05-23T17:20:12;98859.72;;;24.14;49.47
68988;BME280;56038;46.080;11.116;2023-05-23T17:25:15;98866.84;;;24.06;49.70
68988;BME280;56038;46.080;11.116;2023-05-23T17:30:17;98875.31;;;24.01;49.53
68988;BME280;56038;46.080;11.116;2023-05-23T17:35:20;98871.44;;;23.96;50.00
68988;BME280;56038;46.080;11.116;2023-05-23T17:40:24;98883.00;;;23.78;50.51
68988;BME280;56038;46.080;11.116;2023-05-23T17:45:26;98875.22;;;23.59;51.00
68988;BME280;56038;46.080;11.116;2023-05-23T17:50:27;98886.41;;;23.45;50.95
68988;BME280;56038;46.080;11.116;2023-05-23T17:55:30;98906.09;;;23.26;51.53
68988;BME280;56038;46.080;11.116;2023-05-23T18:00:32;98907.16;;;23.15;51.97
68988;BME280;56038;46.080;11.116;2023-05-23T18:05:43;98914.78;;;23.10;52.50
68988;BME280;56038;46.080;11.116;2023-05-23T18:10:48;98917.28;;;23.12;52.25
68988;BME280;56038;46.080;11.116;2023-05-23T18:15:50;98923.44;;;22.94;52.53
68988;BME280;56038;46.080;11.116;2023-05-23T18:20:52;98931.34;;;22.86;53.51
68988;BME280;56038;46.080;11.116;2023-05-23T18:25:55;98938.13;;;22.71;53.73
68988;BME280;56038;46.080;11.116;2023-05-23T18:30:57;98946.56;;;22.39;54.97
68988;BME280;56038;46.080;11.116;2023-05-23T18:35:59;98951.88;;;22.39;54.54
68988;BME280;56038;46.080;11.116;2023-05-23T18:41:02;98957.94;;;22.31;54.96
68988;BME280;56038;46.080;11.116;2023-05-23T18:46:03;98979.84;;;22.16;55.68
68988;BME280;56038;46.080;11.116;2023-05-23T18:51:05;98995.09;;;22.04;56.25
68988;BME280;56038;46.080;11.116;2023-05-23T18:56:09;99004.22;;;21.92;56.30
68988;BME280;56038;46.080;11.116;2023-05-23T19:01:11;99015.03;;;21.80;56.89
68988;BME280;56038;46.080;11.116;2023-05-23T19:06:12;99016.25;;;21.76;56.92
68988;BME280;56038;46.080;11.116;2023-05-23T19:11:16;99013.06;;;21.53;57.87
68988;BME280;56038;46.080;11.116;2023-05-23T19:16:17;99015.31;;;21.48;57.60
68988;BME280;56038;46.080;11.116;2023-05-23T19:21:20;99020.34;;;21.32;58.14
68988;BME280;56038;46.080;11.116;2023-05-23T19:26:23;99028.38;;;21.21;58.49
68988;BME280;56038;46.080;11.116;2023-05-23T19:31:25;99044.97;;;21.04;59.10
68988;BME280;56038;46.080;11.116;2023-05-23T19:36:26;99048.63;;;21.03;58.85
68988;BME280;56038;46.080;11.116;2023-05-23T19:41:30;99060.16;;;20.92;59.49
68988;BME280;56038;46.080;11.116;2023-05-23T19:46:32;99050.75;;;20.78;59.94
68988;BME280;56038;46.080;11.116;2023-05-23T19:51:34;99060.66;;;20.76;59.60
68988;BME280;56038;46.080;11.116;2023-05-23T19:56:38;99066.97;;;20.75;59.70
68988;BME280;56038;46.080;11.116;2023-05-23T20:01:40;99078.97;;;20.70;59.67
68988;BME280;56038;46.080;11.116;2023-05-23T20:06:45;99083.66;;;20.66;59.91
68988;BME280;56038;46.080;11.116;2023-05-23T20:11:48;99084.47;;;20.57;62.96
68988;BME280;56038;46.080;11.116;2023-05-23T20:16:50;99092.84;;;20.52;60.46
68988;BME280;56038;46.080;11.116;2023-05-23T20:21:53;99096.56;;;20.50;60.79
68988;BME280;56038;46.080;11.116;2023-05-23T20:26:56;99100.25;;;20.38;61.36
68988;BME280;56038;46.080;11.116;2023-05-23T20:31:57;99107.03;;;20.30;61.56
68988;BME280;56038;46.080;11.116;2023-05-23T20:36:59;99112.16;;;20.22;62.00
68988;BME280;56038;46.080;11.116;2023-05-23T20:42:04;99115.91;;;20.20;62.24
68988;BME280;56038;46.080;11.116;2023-05-23T20:47:09;99123.00;;;20.19;62.10
68988;BME280;56038;46.080;11.116;2023-05-23T20:52:12;99126.88;;;20.15;62.03
68988;BME280;56038;46.080;11.116;2023-05-23T20:57:15;99137.22;;;20.18;61.79
68988;BME280;56038;46.080;11.116;2023-05-23T21:02:17;99145.31;;;20.17;61.98
68988;BME280;56038;46.080;11.116;2023-05-23T21:07:19;99151.72;;;20.14;61.77
68988;BME280;56038;46.080;11.116;2023-05-23T21:12:22;99149.78;;;20.16;61.73
68988;BME280;56038;46.080;11.116;2023-05-23T21:17:24;99145.72;;;20.12;61.85
68988;BME280;56038;46.080;11.116;2023-05-23T21:22:25;99142.88;;;20.04;62.30
68988;BME280;56038;46.080;11.116;2023-05-23T21:27:28;99152.72;;;20.02;62.50
68988;BME280;56038;46.080;11.116;2023-05-23T21:32:30;99147.69;;;19.99;62.92
68988;BME280;56038;46.080;11.116;2023-05-23T21:37:32;99149.38;;;20.00;62.67
68988;BME280;56038;46.080;11.116;2023-05-23T21:42:35;99154.94;;;19.97;62.95
68988;BME280;56038;46.080;11.116;2023-05-23T21:47:37;99150.16;;;19.91;63.94
68988;BME280;56038;46.080;11.116;2023-05-23T21:52:38;99156.66;;;19.87;63.42
68988;BME280;56038;46.080;11.116;2023-05-23T21:57:41;99154.50;;;19.81;63.82
68988;BME280;56038;46.080;11.116;2023-05-23T22:02:43;99159.09;;;19.79;64.16
68988;BME280;56038;46.080;11.116;2023-05-23T22:07:45;99157.53;;;19.76;64.45
68988;BME280;56038;46.080;11.116;2023-05-23T22:12:49;99161.63;;;19.69;65.83
68988;BME280;56038;46.080;11.116;2023-05-23T22:17:51;99163.25;;;19.60;66.89
68988;BME280;56038;46.080;11.116;2023-05-23T22:22:53;99161.91;;;19.55;66.71
68988;BME280;56038;46.080;11.116;2023-05-23T22:27:56;99163.22;;;19.49;66.56
68988;BME280;56038;46.080;11.116;2023-05-23T22:32:57;99166.59;;;19.40;66.92
68988;BME280;56038;46.080;11.116;2023-05-23T22:38:00;99182.97;;;19.34;68.12
68988;BME280;56038;46.080;11.116;2023-05-23T22:43:04;99164.09;;;19.27;68.10
68988;BME280;56038;46.080;11.116;2023-05-23T22:48:06;99172.38;;;19.23;68.20
68988;BME280;56038;46.080;11.116;2023-05-23T22:53:09;99165.78;;;19.17;68.33
68988;BME280;56038;46.080;11.116;2023-05-23T22:58:12;99162.78;;;19.10;69.02
68988;BME280;56038;46.080;11.116;2023-05-23T23:03:14;99171.78;;;19.08;69.29
68988;BME280;56038;46.080;11.116;2023-05-23T23:08:15;99165.16;;;19.02;69.62
68988;BME280;56038;46.080;11.116;2023-05-23T23:13:20;99163.84;;;18.97;70.29
68988;BME280;56038;46.080;11.116;2023-05-23T23:18:21;99161.91;;;18.88;70.40
68988;BME280;56038;46.080;11.116;2023-05-23T23:23:23;99160.72;;;18.80;70.89
68988;BME280;56038;46.080;11.116;2023-05-23T23:28:26;99154.59;;;18.80;71.18
68988;BME280;56038;46.080;11.116;2023-05-23T23:33:28;99153.22;;;18.74;71.74
68988;BME280;56038;46.080;11.116;2023-05-23T23:38:30;99149.25;;;18.69;71.35
68988;BME280;56038;46.080;11.116;2023-05-23T23:43:33;99153.13;;;18.65;71.49
68988;BME280;56038;46.080;11.116;2023-05-23T23:48:35;99150.34;;;18.66;71.28
68988;BME280;56038;46.080;11.116;2023-05-23T23:53:36;99156.41;;;18.55;72.01
68988;BME280;56038;46.080;11.116;2023-05-23T23:58:40;99150.66;;;18.50;72.13
